Time;durP1;ratioP1;P1;durP2;ratioP2;P2;SDS_P1;SDS_P2;PMS_P1;PMS_P2;Temp;Humidity;BMP_temperature;BMP_pressure;BME280_temperature;BME280_humidity;BME280_pressure;Samples;Min_cycle;Max_cycle;Signal;HPM_P1;HPM_P2
2023/06/09 03:59:16;;;;;;;4.57;3.55;;;;;;;16.90;100.00;100009.03;6151899;28;21114;-81
2023/06/09 04:02:20;;;;;;;6.25;4.03;;;;;;;16.95;100.00;100008.38;5251909;33;33132;-82
2023/06/09 04:05:24;;;;;;;4.85;3.95;;;;;;;16.98;100.00;100014.16;5245129;33;34084;-82
2023/06/09 04:08:29;;;;;;;4.72;4.05;;;;;;;17.00;100.00;100020.22;5258219;33;33456;-82
2023/06/09 04:11:32;;;;;;;6.10;4.68;;;;;;;17.01;100.00;100023.75;5229213;33;33621;-82
2023/06/09 04:14:35;;;;;;;5.62;4.60;;;;;;;17.04;100.00;100023.31;5228754;33;34613;-82
2023/06/09 04:17:38;;;;;;;11.48;5.18;;;;;;;17.08;100.00;100024.53;5247235;33;33714;-82
2023/06/09 04:20:41;;;;;;;8.65;5.60;;;;;;;17.13;100.00;100021.91;5239934;33;33961;-82
2023/06/09 04:23:45;;;;;;;8.10;5.78;;;;;;;17.19;100.00;100022.91;5240264;33;34542;-82
2023/06/09 04:26:48;;;;;;;10.65;6.30;;;;;;;17.22;100.00;100027.88;5252387;33;33715;-82
2023/06/09 04:29:52;;;;;;;10.27;7.00;;;;;;;17.25;100.00;100023.87;5239931;33;34444;-82
2023/06/09 04:32:58;;;;;;;10.30;7.50;;;;;;;17.32;100.00;100030.91;5252741;33;34141;-82
2023/06/09 04:36:03;;;;;;;9.90;7.50;;;;;;;17.45;100.00;100032.59;5252621;33;33430;-82
2023/06/09 04:39:07;;;;;;;11.60;8.35;;;;;;;17.49;100.00;100041.09;5252546;33;34579;-82
2023/06/09 04:42:11;;;;;;;12.57;8.27;;;;;;;17.52;100.00;100043.38;5240088;33;33712;-82
2023/06/09 04:45:14;;;;;;;16.08;10.10;;;;;;;17.51;100.00;100037.09;5239755;33;34585;-81
2023/06/09 04:48:17;;;;;;;13.73;9.68;;;;;;;17.60;100.00;100041.16;5239828;33;34529;-81
2023/06/09 04:51:21;;;;;;;13.88;10.13;;;;;;;17.71;100.00;100041.44;5216898;33;34117;-82
2023/06/09 04:54:28;;;;;;;18.17;11.45;;;;;;;17.68;100.00;100040.81;5228888;33;34616;-81
2023/06/09 04:57:31;;;;;;;14.77;11.18;;;;;;;17.72;100.00;100043.06;5228664;33;33898;-82
2023/06/09 05:00:35;;;;;;;15.48;11.12;;;;;;;17.77;100.00;100054.94;5251782;33;34084;-82
2023/06/09 05:03:38;;;;;;;18.98;10.65;;;;;;;17.76;100.00;100049.72;5222750;33;33780;-82
2023/06/09 05:06:41;;;;;;;16.42;10.90;;;;;;;17.76;100.00;100055.19;5239379;33;33688;-82
2023/06/09 05:09:44;;;;;;;16.48;11.07;;;;;;;17.86;100.00;100055.47;5252846;33;34232;-81
2023/06/09 05:12:48;;;;;;;16.02;11.77;;;;;;;17.93;100.00;100048.03;5227900;33;33787;-82
2023/06/09 05:15:53;;;;;;;15.00;10.93;;;;;;;18.03;100.00;100047.44;5239539;33;34430;-82
2023/06/09 05:18:57;;;;;;;15.75;11.18;;;;;;;18.11;100.00;100044.37;5242224;33;33772;-82
2023/06/09 05:22:01;;;;;;;16.17;11.10;;;;;;;18.23;100.00;100050.66;5242621;33;34094;-82
2023/06/09 05:25:06;;;;;;;13.55;9.77;;;;;;;18.31;100.00;100050.31;5250376;33;34204;-81
2023/06/09 05:28:08;;;;;;;10.20;7.68;;;;;;;18.33;100.00;100058.22;5255589;33;35474;-81
2023/06/09 05:31:11;;;;;;;9.55;7.07;;;;;;;18.31;100.00;100057.63;5234248;33;34126;-81
2023/06/09 05:34:14;;;;;;;9.38;6.70;;;;;;;18.29;100.00;100063.34;5255065;33;34130;-81
2023/06/09 05:37:18;;;;;;;11.05;6.62;;;;;;;18.32;100.00;100060.13;5242112;33;34646;-84
2023/06/09 05:40:21;;;;;;;10.75;6.90;;;;;;;18.32;100.00;100062.84;5256824;33;33485;-85
2023/06/09 05:43:28;;;;;;;6.78;5.78;;;;;;;18.16;100.00;100066.28;5232708;33;34445;-85
2023/06/09 05:46:30;;;;;;;7.80;6.25;;;;;;;18.18;100.00;100069.59;5230697;33;33869;-81
2023/06/09 05:49:34;;;;;;;11.57;6.07;;;;;;;18.24;100.00;100065.94;5241206;33;34603;-81
2023/06/09 05:52:37;;;;;;;12.37;6.82;;;;;;;18.17;100.00;100062.50;5241236;33;34238;-81
2023/06/09 05:55:40;;;;;;;8.73;5.87;;;;;;;18.20;100.00;100064.75;5241418;33;33625;-81
2023/06/09 05:58:44;;;;;;;7.43;5.53;;;;;;;18.20;100.00;100056.59;5253907;33;34081;-81
2023/06/09 06:01:48;;;;;;;9.75;5.12;;;;;;;18.13;100.00;100055.84;5246378;33;34410;-81
2023/06/09 06:04:51;;;;;;;5.90;5.10;;;;;;;18.11;100.00;100044.37;5223870;34;34594;-81
2023/06/09 06:07:54;;;;;;;6.03;4.78;;;;;;;18.12;100.00;100046.03;5212323;34;34216;-81
2023/06/09 06:10:57;;;;;;;4.32;3.75;;;;;;;18.11;100.00;100044.37;5223799;34;34072;-81
2023/06/09 06:14:00;;;;;;;6.47;4.30;;;;;;;18.11;100.00;100053.38;5212594;34;34009;-81
2023/06/09 06:17:03;;;;;;;5.45;3.90;;;;;;;18.18;100.00;100060.59;5224181;34;33566;-81
2023/06/09 06:20:06;;;;;;;6.55;3.80;;;;;;;18.20;100.00;100072.94;5245963;33;34076;-81
2023/06/09 06:23:11;;;;;;;9.20;3.90;;;;;;;18.14;100.00;100082.03;5259702;33;33961;-79
2023/06/09 06:26:13;;;;;;;6.75;3.58;;;;;;;17.98;100.00;100086.25;5260353;33;33735;-80
2023/06/09 06:29:16;;;;;;;5.07;3.87;;;;;;;17.93;100.00;100091.59;5260086;33;35086;-81
2023/06/09 06:32:19;;;;;;;4.47;4.03;;;;;;;17.91;100.00;100107.34;5241485;33;33620;-82
2023/06/09 06:35:23;;;;;;;5.18;4.28;;;;;;;17.78;100.00;100121.97;5230549;33;34300;-82
2023/06/09 06:38:26;;;;;;;7.78;3.80;;;;;;;17.66;100.00;100138.22;5241182;33;35556;-81
2023/06/09 06:41:29;;;;;;;5.65;4.50;;;;;;;17.32;100.00;100136.19;5254014;33;33566;-82
2023/06/09 06:44:31;;;;;;;8.73;5.18;;;;;;;17.00;100.00;100118.13;5241199;33;33985;-81
2023/06/09 06:47:35;;;;;;;8.75;4.68;;;;;;;16.66;100.00;100110.50;5229805;33;34036;-81
2023/06/09 06:50:40;;;;;;;7.20;5.05;;;;;;;16.44;100.00;100116.38;5240598;33;34608;-81
2023/06/09 06:53:43;;;;;;;12.95;5.50;;;;;;;16.33;100.00;100122.53;5229885;33;34780;-81
2023/06/09 06:56:46;;;;;;;6.62;4.95;;;;;;;16.27;100.00;100123.41;5240497;33;34054;-81
2023/06/09 06:59:48;;;;;;;7.30;4.72;;;;;;;16.18;100.00;100119.31;5240686;33;33547;-81
2023/06/09 07:02:51;;;;;;;8.57;4.72;;;;;;;16.17;100.00;100123.88;5229228;33;34890;-81
2023/06/09 07:05:54;;;;;;;8.65;4.87;;;;;;;16.12;100.00;100121.03;5241774;33;35460;-81
2023/06/09 07:08:58;;;;;;;7.15;4.65;;;;;;;16.05;100.00;100131.09;5229930;33;33565;-81
2023/06/09 07:12:05;;;;;;;5.32;4.30;;;;;;;16.00;100.00;100129.03;5230374;33;34611;-81
2023/06/09 07:15:08;;;;;;;6.80;4.10;;;;;;;15.96;100.00;100130.50;5253521;33;33767;-81
2023/06/09 07:18:11;;;;;;;6.20;4.43;;;;;;;15.98;100.00;100125.69;5229900;33;33327;-81
2023/06/09 07:21:14;;;;;;;6.07;3.42;;;;;;;15.97;100.00;100117.75;5241180;33;34086;-80
2023/06/09 07:24:17;;;;;;;8.13;3.50;;;;;;;15.87;100.00;100110.12;5246323;33;33883;-80
2023/06/09 07:27:20;;;;;;;4.20;3.40;;;;;;;15.84;100.00;100107.84;5232125;33;33656;-81
2023/06/09 07:30:23;;;;;;;7.20;3.55;;;;;;;15.90;100.00;100096.09;5246262;33;33673;-81
2023/06/09 07:33:32;;;;;;;5.93;3.62;;;;;;;15.99;100.00;100093.94;5246491;33;33674;-82
2023/06/09 07:36:35;;;;;;;6.87;3.60;;;;;;;16.05;100.00;100096.59;5230911;33;34630;-81
2023/06/09 07:39:38;;;;;;;5.40;3.17;;;;;;;16.11;100.00;100094.91;5234411;33;33838;-81
2023/06/09 07:42:40;;;;;;;7.50;3.55;;;;;;;16.09;100.00;100095.13;5252696;33;34694;-81
2023/06/09 07:45:43;;;;;;;4.62;2.85;;;;;;;16.16;100.00;100088.81;5253187;33;33722;-81
2023/06/09 07:48:46;;;;;;;7.90;3.80;;;;;;;16.32;100.00;100088.22;5241101;33;34014;-82
2023/06/09 07:51:50;;;;;;;5.18;3.45;;;;;;;16.38;100.00;100086.50;5243848;33;33879;-83
2023/06/09 07:54:53;;;;;;;5.28;3.37;;;;;;;16.44;100.00;100089.19;5253226;33;34316;-86
2023/06/09 07:57:56;;;;;;;5.07;3.50;;;;;;;16.48;100.00;100086.84;5237863;33;34182;-87
2023/06/09 08:00:59;;;;;;;5.45;3.12;;;;;;;16.46;100.00;100080.81;5221082;33;33785;-83
2023/06/09 08:04:03;;;;;;;5.35;3.20;;;;;;;16.60;100.00;100090.50;5220454;33;33731;-81
2023/06/09 08:07:06;;;;;;;5.07;2.97;;;;;;;16.65;100.00;100092.53;5219167;33;33616;-83
2023/06/09 08:10:09;;;;;;;5.30;2.62;;;;;;;16.70;100.00;100089.97;5239857;33;34041;-81
2023/06/09 08:13:15;;;;;;;5.15;2.85;;;;;;;16.75;100.00;100099.09;5227015;33;34351;-83
2023/06/09 08:16:18;;;;;;;3.78;3.03;;;;;;;16.73;100.00;100093.09;5239139;33;35297;-82
2023/06/09 08:19:21;;;;;;;4.50;3.10;;;;;;;16.67;100.00;100101.28;5238217;33;34593;-83
2023/06/09 08:22:24;;;;;;;4.00;2.25;;;;;;;16.75;100.00;100096.38;5238830;33;33815;-81
2023/06/09 08:25:27;;;;;;;3.65;2.62;;;;;;;16.82;100.00;100095.50;5239448;33;34554;-81
2023/06/09 08:28:30;;;;;;;4.37;3.17;;;;;;;16.88;100.00;100102.81;5238847;33;35413;-81
2023/06/09 08:31:33;;;;;;;7.00;3.30;;;;;;;16.91;100.00;100105.88;5227363;33;33890;-81
2023/06/09 08:34:39;;;;;;;3.40;2.65;;;;;;;17.02;100.00;100111.63;5252166;33;33829;-82
2023/06/09 08:37:42;;;;;;;2.58;2.37;;;;;;;17.06;100.00;100112.84;5229804;33;33755;-81
2023/06/09 08:40:48;;;;;;;4.30;2.55;;;;;;;17.10;100.00;100117.59;5223577;33;33841;-83
2023/06/09 08:43:51;;;;;;;4.55;2.60;;;;;;;17.14;100.00;100113.38;5249828;33;34170;-82
2023/06/09 08:47:00;;;;;;;2.78;2.58;;;;;;;17.14;100.00;100132.41;5219579;33;33852;-82
2023/06/09 08:50:03;;;;;;;3.20;2.85;;;;;;;17.19;100.00;100129.00;5246966;33;33914;-81
2023/06/09 08:53:09;;;;;;;5.15;2.95;;;;;;;17.23;100.00;100128.31;5233874;33;34604;-81
2023/06/09 08:56:12;;;;;;;4.05;3.10;;;;;;;17.24;100.00;100134.59;5249182;33;34497;-82
2023/06/09 08:59:16;;;;;;;3.67;3.35;;;;;;;17.22;100.00;100136.69;5227050;33;33844;-84
2023/06/09 09:02:19;;;;;;;3.90;3.15;;;;;;;17.27;100.00;100127.88;5251999;33;33568;-83
2023/06/09 09:05:23;;;;;;;4.15;3.42;;;;;;;17.29;100.00;100134.75;5240764;33;33677;-83
2023/06/09 09:08:26;;;;;;;4.15;3.03;;;;;;;17.48;100.00;100134.72;5231004;33;34001;-83
2023/06/09 09:11:29;;;;;;;4.55;3.20;;;;;;;17.63;100.00;100137.84;5235395;33;33716;-84
2023/06/09 09:14:32;;;;;;;5.55;3.22;;;;;;;17.65;100.00;100131.13;5241873;33;33981;-83
2023/06/09 09:17:35;;;;;;;3.80;2.87;;;;;;;17.84;100.00;100123.78;5238421;34;34062;-83
2023/06/09 09:20:38;;;;;;;5.40;3.53;;;;;;;17.83;100.00;100124.00;5230208;34;34189;-83
2023/06/09 09:23:57;;;;;;;5.15;3.17;;;;;;;18.01;100.00;100120.38;5226314;34;34958;-84
2023/06/09 09:27:00;;;;;;;3.40;2.33;;;;;;;18.19;100.00;100120.28;5247757;33;34199;-83
2023/06/09 09:30:03;;;;;;;3.40;2.97;;;;;;;18.33;100.00;100127.19;5242617;33;33752;-83
2023/06/09 09:33:08;;;;;;;3.60;3.05;;;;;;;18.25;100.00;100119.38;5232397;33;33948;-83
2023/06/09 09:36:11;;;;;;;3.53;2.97;;;;;;;18.38;100.00;100125.69;5256090;33;35442;-83
2023/06/09 09:39:15;;;;;;;2.50;2.30;;;;;;;18.41;100.00;100123.31;5240840;33;34084;-82
2023/06/09 09:42:19;;;;;;;2.85;2.65;;;;;;;18.47;100.00;100116.91;5233887;33;34733;-82
2023/06/09 09:45:26;;;;;;;4.47;3.00;;;;;;;18.56;100.00;100120.12;5249747;33;34765;-86
2023/06/09 09:48:29;;;;;;;4.25;3.37;;;;;;;18.78;100.00;100121.22;5222151;34;33874;-88
2023/06/09 09:51:33;;;;;;;2.90;2.60;;;;;;;19.01;100.00;100114.06;5212222;34;35058;-89
2023/06/09 09:54:36;;;;;;;3.80;3.22;;;;;;;19.00;100.00;100115.94;5252935;33;35268;-83
2023/06/09 09:57:40;;;;;;;4.40;3.50;;;;;;;19.09;100.00;100104.69;5240885;33;33975;-83
2023/06/09 10:00:46;;;;;;;3.67;3.35;;;;;;;19.26;100.00;100103.69;5240682;33;34392;-83
2023/06/09 10:03:53;;;;;;;2.97;2.70;;;;;;;19.39;100.00;100109.94;5252638;33;34634;-83
2023/06/09 10:07:01;;;;;;;4.82;3.40;;;;;;;19.23;100.00;100109.62;5241154;33;34341;-83
2023/06/09 10:10:08;;;;;;;4.63;3.30;;;;;;;19.40;100.00;100103.41;5244861;33;33365;-83
2023/06/09 10:13:12;;;;;;;3.17;2.78;;;;;;;19.38;100.00;100103.66;5253794;33;33555;-83
2023/06/09 10:16:17;;;;;;;3.40;2.92;;;;;;;19.29;100.00;100099.62;5241462;33;33936;-83
2023/06/09 10:19:23;;;;;;;4.75;3.20;;;;;;;19.45;100.00;100096.16;5253497;33;34471;-83
2023/06/09 10:22:26;;;;;;;3.15;2.85;;;;;;;19.40;100.00;100096.03;5242303;33;33643;-83
2023/06/09 10:25:29;;;;;;;2.85;2.47;;;;;;;19.40;100.00;100093.31;5253630;33;35295;-83
2023/06/09 10:28:32;;;;;;;2.72;2.53;;;;;;;19.44;100.00;100090.91;5253844;33;34185;-83
2023/06/09 10:31:41;;;;;;;4.05;3.35;;;;;;;19.35;100.00;100089.66;5230295;33;34654;-84
2023/06/09 10:34:48;;;;;;;4.18;3.15;;;;;;;19.47;100.00;100083.06;5249893;33;33424;-84
2023/06/09 10:37:50;;;;;;;4.07;3.67;;;;;;;19.47;100.00;100082.25;5255887;33;33913;-84
2023/06/09 10:41:18;;;;;;;4.90;3.37;;;;;;;19.48;100.00;100075.72;5272193;33;34083;-83
2023/06/09 10:44:50;;;;;;;4.43;4.03;;;;;;;19.29;100.00;100079.72;5275585;33;33790;-83
2023/06/09 10:47:53;;;;;;;4.40;3.58;;;;;;;19.15;100.00;100079.97;5246404;33;34130;-83
2023/06/09 10:51:28;;;;;;;4.57;4.18;;;;;;;19.05;100.00;100073.50;5232963;33;34022;-83
2023/06/09 10:54:32;;;;;;;4.60;4.20;;;;;;;19.09;100.00;100080.13;5236407;33;34467;-83
2023/06/09 10:57:37;;;;;;;6.28;4.18;;;;;;;19.13;100.00;100070.38;5223496;34;33828;-83
2023/06/09 11:01:05;;;;;;;4.97;4.47;;;;;;;19.15;100.00;100073.69;5224700;33;34635;-84
2023/06/09 11:04:45;;;;;;;7.43;4.18;;;;;;;19.15;100.00;100073.69;5240995;33;33883;-84
2023/06/09 11:08:02;;;;;;;5.15;4.32;;;;;;;18.93;100.00;100063.44;5254446;33;33743;-84
2023/06/09 11:11:15;;;;;;;8.45;4.90;;;;;;;18.88;100.00;100059.78;5253325;33;33874;-84
2023/06/09 11:14:46;;;;;;;6.15;5.00;;;;;;;18.80;100.00;100055.50;5253508;33;33836;-84
2023/06/09 11:17:51;;;;;;;8.75;4.68;;;;;;;18.95;100.00;100055.84;5254392;33;34082;-84
2023/06/09 11:21:27;;;;;;;5.32;4.80;;;;;;;19.07;100.00;100057.69;5257910;33;33812;-84
2023/06/09 11:24:49;;;;;;;4.97;4.25;;;;;;;19.18;100.00;100057.66;5202321;33;34011;-84
2023/06/09 11:27:55;;;;;;;6.70;5.20;;;;;;;19.39;100.00;100058.06;5239459;33;33458;-84
2023/06/09 11:31:03;;;;;;;5.70;4.90;;;;;;;19.47;100.00;100053.03;5259074;33;33941;-84
2023/06/09 11:34:07;;;;;;;7.03;4.90;;;;;;;19.76;100.00;100053.03;5253100;33;34956;-85
2023/06/09 11:37:10;;;;;;;6.72;5.32;;;;;;;20.22;100.00;100061.19;5240513;33;34972;-85
2023/06/09 11:40:13;;;;;;;5.97;4.87;;;;;;;20.52;100.00;100058.09;5240943;33;33858;-85
2023/06/09 11:43:16;;;;;;;4.80;4.25;;;;;;;20.68;100.00;100053.69;5240333;33;33765;-85
2023/06/09 11:46:19;;;;;;;5.55;4.35;;;;;;;20.68;100.00;100056.41;5253721;33;34463;-85
2023/06/09 11:49:22;;;;;;;5.75;4.93;;;;;;;20.77;100.00;100054.94;5229075;33;33511;-85
2023/06/09 11:52:25;;;;;;;4.70;4.10;;;;;;;21.03;100.00;100056.06;5254735;33;33514;-84
2023/06/09 11:55:31;;;;;;;4.90;4.30;;;;;;;21.16;100.00;100049.38;5240101;33;33592;-85
2023/06/09 11:58:34;;;;;;;6.47;5.32;;;;;;;21.17;100.00;100053.78;5252398;33;34209;-85
2023/06/09 12:01:39;;;;;;;5.87;4.75;;;;;;;21.06;100.00;100050.09;5242128;33;35331;-84
2023/06/09 12:04:43;;;;;;;6.20;5.12;;;;;;;20.99;100.00;100047.53;5230366;33;33712;-84
2023/06/09 12:07:47;;;;;;;6.05;5.22;;;;;;;21.15;100.00;100043.09;5253956;33;34193;-84
2023/06/09 12:10:50;;;;;;;5.20;4.70;;;;;;;21.29;100.00;100049.81;5252537;33;33852;-84
2023/06/09 12:13:55;;;;;;;5.12;4.60;;;;;;;21.14;100.00;100052.38;5239789;33;32872;-84
2023/06/09 12:16:58;;;;;;;5.53;5.00;;;;;;;20.99;100.00;100052.19;5253239;33;33842;-84
2023/06/09 12:20:34;;;;;;;5.12;4.40;;;;;;;21.25;100.00;100056.88;5252395;33;34165;-84
2023/06/09 12:23:38;;;;;;;4.72;4.12;;;;;;;21.49;100.00;100051.97;5221717;33;33989;-84
2023/06/09 12:26:42;;;;;;;4.37;4.07;;;;;;;21.37;100.00;100051.28;5252971;33;34076;-84
2023/06/09 12:29:45;;;;;;;4.53;4.12;;;;;;;21.41;100.00;100051.59;5243721;33;33753;-84
2023/06/09 12:32:48;;;;;;;4.28;3.87;;;;;;;21.29;100.00;100046.25;5224357;34;33927;-88
2023/06/09 12:35:53;;;;;;;4.47;3.72;;;;;;;21.20;100.00;100045.88;5237012;34;33776;-88
2023/06/09 12:38:56;;;;;;;4.37;3.97;;;;;;;21.33;100.00;100038.34;5237311;34;33507;-89
2023/06/09 12:42:10;;;;;;;4.72;4.03;;;;;;;21.90;100.00;100029.59;5213385;34;33747;-85
2023/06/09 12:45:15;;;;;;;4.07;3.67;;;;;;;22.76;100.00;100031.34;5237576;34;33973;-84
2023/06/09 12:48:18;;;;;;;3.58;3.28;;;;;;;22.89;100.00;100021.78;5228195;34;33844;-85
2023/06/09 12:51:21;;;;;;;4.32;3.62;;;;;;;23.08;100.00;100028.47;5237155;34;35299;-85
2023/06/09 12:54:27;;;;;;;3.72;3.30;;;;;;;23.34;100.00;100020.28;5237086;34;33627;-85
2023/06/09 12:57:29;;;;;;;4.22;3.85;;;;;;;23.47;100.00;100017.03;5224561;34;33427;-85
2023/06/09 13:00:34;;;;;;;4.80;4.32;;;;;;;23.82;100.00;100009.97;5236751;34;33743;-85
2023/06/09 13:03:37;;;;;;;4.18;3.78;;;;;;;24.15;100.00;100014.06;5231332;34;33779;-85
2023/06/09 13:06:41;;;;;;;4.03;3.60;;;;;;;24.75;100.00;100012.31;5236822;34;34376;-85
2023/06/09 13:09:44;;;;;;;3.30;3.00;;;;;;;24.90;99.02;100005.91;5236920;34;33893;-85
2023/06/09 13:12:50;;;;;;;4.22;3.83;;;;;;;25.00;90.81;99999.53;5224519;34;34515;-85
2023/06/09 13:15:53;;;;;;;3.80;3.45;;;;;;;24.93;96.59;99996.28;5217047;34;33964;-85
2023/06/09 13:18:56;;;;;;;3.47;3.17;;;;;;;25.05;92.02;99994.00;5240887;34;34755;-85
2023/06/09 13:21:59;;;;;;;3.60;3.30;;;;;;;25.16;86.21;99981.03;5232873;34;33939;-85
2023/06/09 13:25:02;;;;;;;3.35;3.08;;;;;;;25.39;91.30;99985.84;5228428;34;34038;-85
2023/06/09 13:28:05;;;;;;;3.00;2.78;;;;;;;25.56;90.67;99980.75;5228016;34;33797;-85
2023/06/09 13:31:08;;;;;;;3.95;3.15;;;;;;;25.39;87.18;99985.00;5237799;34;33887;-84
2023/06/09 13:34:13;;;;;;;5.20;3.17;;;;;;;25.42;87.16;99973.41;5224826;34;34501;-84
2023/06/09 13:37:16;;;;;;;3.35;3.05;;;;;;;25.51;84.75;99972.53;5224026;34;35208;-84
2023/06/09 13:40:19;;;;;;;3.70;3.30;;;;;;;25.30;87.00;99976.50;5224083;34;33518;-84
2023/06/09 13:43:22;;;;;;;3.87;3.30;;;;;;;24.44;91.63;99976.59;5224170;34;33913;-84
2023/06/09 13:46:25;;;;;;;4.15;3.30;;;;;;;24.75;95.95;99968.25;5224226;34;34815;-84
2023/06/09 13:49:28;;;;;;;3.22;2.92;;;;;;;23.96;96.86;99976.13;5224393;34;33845;-84
2023/06/09 13:52:31;;;;;;;4.43;3.08;;;;;;;23.73;98.86;99976.69;5213302;34;33794;-84
2023/06/09 13:55:34;;;;;;;5.05;3.22;;;;;;;23.30;100.00;99981.56;5218687;33;33725;-84
2023/06/09 13:58:37;;;;;;;4.68;3.58;;;;;;;22.93;100.00;99971.53;5230258;33;33585;-84
2023/06/09 14:01:42;;;;;;;3.10;2.90;;;;;;;23.04;100.00;99966.94;5241435;33;33983;-84
2023/06/09 14:04:46;;;;;;;3.12;2.92;;;;;;;22.90;98.56;99958.34;5241786;33;33771;-84
2023/06/09 14:07:49;;;;;;;2.97;2.67;;;;;;;23.06;98.80;99956.53;5241210;33;34109;-84
2023/06/09 14:10:52;;;;;;;3.15;2.95;;;;;;;23.32;100.00;99957.41;5254415;33;34755;-82
2023/06/09 14:13:58;;;;;;;4.00;2.70;;;;;;;23.21;100.00;99962.03;5218904;33;33534;-84
2023/06/09 14:17:01;;;;;;;4.30;2.92;;;;;;;23.52;96.34;99960.16;5235560;33;33545;-83
2023/06/09 14:20:05;;;;;;;3.33;3.03;;;;;;;23.54;98.02;99957.94;5222342;33;34196;-85
2023/06/09 14:23:08;;;;;;;3.17;2.87;;;;;;;23.58;93.93;99963.75;5226627;33;34929;-84
2023/06/09 14:26:13;;;;;;;3.15;2.90;;;;;;;23.85;93.82;99970.91;5241871;33;33749;-84
2023/06/09 14:29:16;;;;;;;3.37;2.50;;;;;;;23.91;96.51;99967.06;5240286;33;34956;-83
2023/06/09 14:32:19;;;;;;;3.00;2.78;;;;;;;24.03;91.93;99972.28;5224023;33;34409;-87
2023/06/09 14:35:25;;;;;;;3.40;3.00;;;;;;;24.09;91.95;99962.91;5230574;33;33355;-88
2023/06/09 14:38:28;;;;;;;3.17;2.87;;;;;;;24.16;92.24;99956.03;5240183;33;34172;-90
2023/06/09 14:41:31;;;;;;;2.83;2.62;;;;;;;24.24;95.71;99957.38;5235545;33;34164;-89
2023/06/09 14:44:34;;;;;;;2.85;2.65;;;;;;;23.77;90.27;99953.88;5230550;33;164177;-85
2023/06/09 14:47:37;;;;;;;3.80;3.33;;;;;;;23.89;89.67;99950.81;5222053;33;34154;-85
2023/06/09 14:50:41;;;;;;;3.17;2.97;;;;;;;23.74;92.42;99950.84;5238174;33;33746;-85
2023/06/09 14:53:44;;;;;;;3.72;3.17;;;;;;;23.51;96.03;99952.19;5255120;33;34836;-85
2023/06/09 14:56:47;;;;;;;3.67;3.05;;;;;;;23.71;94.87;99946.72;5255556;33;33865;-85
2023/06/09 14:59:50;;;;;;;3.20;2.90;;;;;;;23.64;93.42;99945.34;5242435;33;34020;-85
2023/06/09 15:02:58;;;;;;;5.07;2.90;;;;;;;23.54;97.36;99946.13;5242345;33;34023;-85
2023/06/09 15:06:01;;;;;;;3.25;2.90;;;;;;;23.57;95.34;99936.53;5251324;33;34999;-85
2023/06/09 15:09:04;;;;;;;3.08;2.67;;;;;;;23.57;96.34;99931.03;5237253;33;34457;-85
2023/06/09 15:12:07;;;;;;;4.57;3.10;;;;;;;23.75;96.40;99933.25;5234624;34;34750;-85
2023/06/09 15:15:10;;;;;;;3.40;3.10;;;;;;;23.89;92.59;99936.25;5241981;34;33817;-86
2023/06/09 15:18:14;;;;;;;3.08;2.78;;;;;;;24.14;91.17;99933.47;5232445;34;35281;-85
2023/06/09 15:21:16;;;;;;;3.60;2.92;;;;;;;24.04;86.55;99927.16;5239940;34;33576;-85
2023/06/09 15:24:19;;;;;;;3.28;2.97;;;;;;;23.83;89.44;99932.69;5239685;34;34021;-85
2023/06/09 15:27:22;;;;;;;2.87;2.67;;;;;;;23.91;91.08;99931.31;5224961;34;33397;-85
2023/06/09 15:30:30;;;;;;;3.22;2.90;;;;;;;23.82;90.67;99927.50;5214424;34;33896;-85
2023/06/09 15:33:32;;;;;;;3.20;2.90;;;;;;;24.09;89.04;99927.16;5237930;34;33590;-82
2023/06/09 15:36:36;;;;;;;3.33;2.78;;;;;;;24.05;91.99;99928.84;5213429;34;34786;-82
2023/06/09 15:39:38;;;;;;;3.72;3.17;;;;;;;23.93;88.30;99915.38;5212754;34;34434;-82
2023/06/09 15:42:47;;;;;;;2.90;2.60;;;;;;;23.53;90.14;99917.03;5224431;34;33749;-82
2023/06/09 15:45:51;;;;;;;2.63;2.43;;;;;;;23.57;89.56;99912.63;5236744;34;34067;-82
2023/06/09 15:48:55;;;;;;;2.83;2.62;;;;;;;23.38;90.21;99897.78;5224850;34;33801;-82
2023/06/09 15:51:59;;;;;;;3.53;2.75;;;;;;;22.89;92.46;99896.31;5226092;34;33552;-82
2023/06/09 15:55:05;;;;;;;3.17;2.85;;;;;;;22.92;95.29;99894.94;5224475;34;34004;-82
2023/06/09 15:58:09;;;;;;;3.17;2.85;;;;;;;23.06;93.62;99891.44;5236462;34;34678;-82
2023/06/09 16:01:12;;;;;;;3.47;2.80;;;;;;;23.01;93.21;99893.34;5211875;34;33556;-83
2023/06/09 16:04:15;;;;;;;3.12;2.83;;;;;;;23.15;92.62;99883.50;5224097;34;33503;-83
2023/06/09 16:07:18;;;;;;;3.83;3.40;;;;;;;23.03;96.38;99881.00;5212562;34;33935;-83
2023/06/09 16:10:20;;;;;;;3.37;3.10;;;;;;;22.69;96.78;99886.09;5224323;34;34811;-83
